sensor_id;sensor_type;location;lat;lon;timestamp;temperature;humidity
34550;DHT22;66080;52.078;5.626;2023-07-29T00:01:08;17.20;99.90
34550;DHT22;66080;52.078;5.626;2023-07-29T00:03:33;17.20;99.90
34550;DHT22;66080;52.078;5.626;2023-07-29T00:05:59;17.20;99.90
34550;DHT22;66080;52.078;5.626;2023-07-29T00:08:24;17.10;99.90
34550;DHT22;66080;52.078;5.626;2023-07-29T00:10:50;17.10;99.90
34550;DHT22;66080;52.078;5.626;2023-07-29T00:13:16;17.10;99.90
34550;DHT22;66080;52.078;5.626;2023-07-29T00:15:41;17.10;99.90
34550;DHT22;66080;52.078;5.626;2023-07-29T00:18:07;17.10;99.90
34550;DHT22;66080;52.078;5.626;2023-07-29T00:20:32;17.00;99.90
34550;DHT22;66080;52.078;5.626;2023-07-29T00:22:58;17.00;99.90
34550;DHT22;66080;52.078;5.626;2023-07-29T00:25:24;16.90;99.90
34550;DHT22;66080;52.078;5.626;2023-07-29T00:27:49;16.90;99.90
34550;DHT22;66080;52.078;5.626;2023-07-29T00:30:15;16.90;99.90
34550;DHT22;66080;52.078;5.626;2023-07-29T00:32:41;16.90;99.90
34550;DHT22;66080;52.078;5.626;2023-07-29T00:35:07;16.90;99.90
34550;DHT22;66080;52.078;5.626;2023-07-29T00:37:32;16.80;99.90
34550;DHT22;66080;52.078;5.626;2023-07-29T00:39:58;16.80;99.90
34550;DHT22;66080;52.078;5.626;2023-07-29T00:42:24;16.80;99.90
34550;DHT22;66080;52.078;5.626;2023-07-29T00:44:50;16.80;99.90
34550;DHT22;66080;52.078;5.626;2023-07-29T00:47:16;16.70;99.90
34550;DHT22;66080;52.078;5.626;2023-07-29T00:49:43;16.70;99.90
34550;DHT22;66080;52.078;5.626;2023-07-29T00:52:09;16.70;99.90
34550;DHT22;66080;52.078;5.626;2023-07-29T00:54:40;16.60;99.90
34550;DHT22;66080;52.078;5.626;2023-07-29T00:57:08;16.60;99.90
34550;DHT22;66080;52.078;5.626;2023-07-29T00:59:35;16.50;99.90
34550;DHT22;66080;52.078;5.626;2023-07-29T01:02:02;16.50;99.90
34550;DHT22;66080;52.078;5.626;2023-07-29T01:04:28;16.50;99.90
34550;DHT22;66080;52.078;5.626;2023-07-29T01:07:03;16.50;99.90
34550;DHT22;66080;52.078;5.626;2023-07-29T01:09:44;16.50;99.90
34550;DHT22;66080;52.078;5.626;2023-07-29T01:12:42;16.50;99.90
34550;DHT22;66080;52.078;5.626;2023-07-29T01:15:25;16.50;99.90
34550;DHT22;66080;52.078;5.626;2023-07-29T01:18:06;16.50;99.90
34550;DHT22;66080;52.078;5.626;2023-07-29T01:20:37;16.50;99.90
34550;DHT22;66080;52.078;5.626;2023-07-29T01:23:04;16.50;99.90
34550;DHT22;66080;52.078;5.626;2023-07-29T01:25:29;16.50;99.90
34550;DHT22;66080;52.078;5.626;2023-07-29T01:27:55;16.40;99.90
34550;DHT22;66080;52.078;5.626;2023-07-29T01:30:24;16.50;99.90
34550;DHT22;66080;52.078;5.626;2023-07-29T01:33:01;16.40;99.90
34550;DHT22;66080;52.078;5.626;2023-07-29T01:35:49;16.40;99.90
34550;DHT22;66080;52.078;5.626;2023-07-29T01:38:19;16.40;99.90
34550;DHT22;66080;52.078;5.626;2023-07-29T01:40:46;16.40;99.90
34550;DHT22;66080;52.078;5.626;2023-07-29T01:43:12;16.40;99.90
34550;DHT22;66080;52.078;5.626;2023-07-29T01:45:38;16.40;99.90
34550;DHT22;66080;52.078;5.626;2023-07-29T01:48:05;16.40;99.90
34550;DHT22;66080;52.078;5.626;2023-07-29T01:50:31;16.40;99.90
34550;DHT22;66080;52.078;5.626;2023-07-29T01:52:58;16.40;99.90
34550;DHT22;66080;52.078;5.626;2023-07-29T01:55:23;16.40;99.90
34550;DHT22;66080;52.078;5.626;2023-07-29T01:57:49;16.40;99.90
34550;DHT22;66080;52.078;5.626;2023-07-29T02:00:15;16.40;99.90
34550;DHT22;66080;52.078;5.626;2023-07-29T02:02:41;16.40;99.90
34550;DHT22;66080;52.078;5.626;2023-07-29T02:05:07;16.30;99.90
34550;DHT22;66080;52.078;5.626;2023-07-29T02:07:32;16.40;99.90
34550;DHT22;66080;52.078;5.626;2023-07-29T02:09:58;16.30;99.90
34550;DHT22;66080;52.078;5.626;2023-07-29T02:12:23;16.40;99.90
34550;DHT22;66080;52.078;5.626;2023-07-29T02:14:49;16.40;99.90
34550;DHT22;66080;52.078;5.626;2023-07-29T02:17:15;16.40;99.90
34550;DHT22;66080;52.078;5.626;2023-07-29T02:19:40;16.40;99.90
34550;DHT22;66080;52.078;5.626;2023-07-29T02:22:06;16.40;99.90
34550;DHT22;66080;52.078;5.626;2023-07-29T02:24:32;16.40;99.90
34550;DHT22;66080;52.078;5.626;2023-07-29T02:26:57;16.40;99.90
34550;DHT22;66080;52.078;5.626;2023-07-29T02:29:23;16.40;99.90
34550;DHT22;66080;52.078;5.626;2023-07-29T02:31:50;16.40;99.90
34550;DHT22;66080;52.078;5.626;2023-07-29T02:34:15;16.50;99.90
34550;DHT22;66080;52.078;5.626;2023-07-29T02:36:41;16.60;99.90
34550;DHT22;66080;52.078;5.626;2023-07-29T02:39:07;16.60;99.90
34550;DHT22;66080;52.078;5.626;2023-07-29T02:41:32;16.70;99.90
34550;DHT22;66080;52.078;5.626;2023-07-29T02:43:58;16.70;99.90
34550;DHT22;66080;52.078;5.626;2023-07-29T02:46:23;16.70;99.90
34550;DHT22;66080;52.078;5.626;2023-07-29T02:48:50;16.70;99.90
34550;DHT22;66080;52.078;5.626;2023-07-29T02:51:15;16.80;99.90
34550;DHT22;66080;52.078;5.626;2023-07-29T02:53:41;16.80;99.90
34550;DHT22;66080;52.078;5.626;2023-07-29T02:56:06;16.80;99.90
34550;DHT22;66080;52.078;5.626;2023-07-29T02:58:34;16.80;99.90
34550;DHT22;66080;52.078;5.626;2023-07-29T03:01:01;16.80;99.90
34550;DHT22;66080;52.078;5.626;2023-07-29T03:03:28;16.80;99.90
34550;DHT22;66080;52.078;5.626;2023-07-29T03:06:04;16.80;99.90
34550;DHT22;66080;52.078;5.626;2023-07-29T03:08:30;16.80;99.90
34550;DHT22;66080;52.078;5.626;2023-07-29T03:10:57;16.80;99.90
34550;DHT22;66080;52.078;5.626;2023-07-29T03:13:22;16.80;99.90
34550;DHT22;66080;52.078;5.626;2023-07-29T03:15:48;16.80;99.90
34550;DHT22;66080;52.078;5.626;2023-07-29T03:18:14;16.80;99.90
34550;DHT22;66080;52.078;5.626;2023-07-29T03:20:40;16.80;99.90
34550;DHT22;66080;52.078;5.626;2023-07-29T03:23:05;16.80;99.90
34550;DHT22;66080;52.078;5.626;2023-07-29T03:25:31;16.80;99.90
34550;DHT22;66080;52.078;5.626;2023-07-29T03:27:57;16.70;99.90
34550;DHT22;66080;52.078;5.626;2023-07-29T03:30:22;16.70;99.90
34550;DHT22;66080;52.078;5.626;2023-07-29T03:32:49;16.70;99.90
34550;DHT22;66080;52.078;5.626;2023-07-29T03:35:14;16.60;99.90
34550;DHT22;66080;52.078;5.626;2023-07-29T03:37:40;16.70;99.90
34550;DHT22;66080;52.078;5.626;2023-07-29T03:40:06;16.70;99.90
34550;DHT22;66080;52.078;5.626;2023-07-29T03:42:32;16.60;99.90
34550;DHT22;66080;52.078;5.626;2023-07-29T03:44:58;16.60;99.90
34550;DHT22;66080;52.078;5.626;2023-07-29T03:47:24;16.60;99.90
34550;DHT22;66080;52.078;5.626;2023-07-29T03:49:49;16.60;99.90
34550;DHT22;66080;52.078;5.626;2023-07-29T03:52:15;16.60;99.90
34550;DHT22;66080;52.078;5.626;2023-07-29T03:54:40;16.60;99.90
34550;DHT22;66080;52.078;5.626;2023-07-29T03:57:06;16.50;99.90
34550;DHT22;66080;52.078;5.626;2023-07-29T03:59:32;16.50;99.90
34550;DHT22;66080;52.078;5.626;2023-07-29T04:01:57;16.50;99.90
34550;DHT22;66080;52.078;5.626;2023-07-29T04:04:23;16.50;99.90
34550;DHT22;66080;52.078;5.626;2023-07-29T04:06:48;16.50;99.90
34550;DHT22;66080;52.078;5.626;2023-07-29T04:09:14;16.40;99.90
34550;DHT22;66080;52.078;5.626;2023-07-29T04:11:39;16.50;99.90
34550;DHT22;66080;52.078;5.626;2023-07-29T04:14:05;16.50;99.90
34550;DHT22;66080;52.078;5.626;2023-07-29T04:16:31;16.50;99.90
34550;DHT22;66080;52.078;5.626;2023-07-29T04:18:56;16.40;99.90
34550;DHT22;66080;52.078;5.626;2023-07-29T04:21:22;16.40;99.90
34550;DHT22;66080;52.078;5.626;2023-07-29T04:23:47;16.40;99.90
34550;DHT22;66080;52.078;5.626;2023-07-29T04:26:13;16.40;99.90
34550;DHT22;66080;52.078;5.626;2023-07-29T04:28:38;16.40;99.90
34550;DHT22;66080;52.078;5.626;2023-07-29T04:31:04;16.40;99.90
34550;DHT22;66080;52.078;5.626;2023-07-29T04:33:30;16.40;99.90
34550;DHT22;66080;52.078;5.626;2023-07-29T04:35:56;16.40;99.90
34550;DHT22;66080;52.078;5.626;2023-07-29T04:38:23;16.40;99.90
34550;DHT22;66080;52.078;5.626;2023-07-29T04:40:50;16.30;99.90
34550;DHT22;66080;52.078;5.626;2023-07-29T04:43:15;16.40;99.90
34550;DHT22;66080;52.078;5.626;2023-07-29T04:45:44;16.40;99.90
34550;DHT22;66080;52.078;5.626;2023-07-29T04:48:09;16.40;99.90
34550;DHT22;66080;52.078;5.626;2023-07-29T04:50:35;16.30;99.90
34550;DHT22;66080;52.078;5.626;2023-07-29T04:53:01;16.40;99.90
34550;DHT22;66080;52.078;5.626;2023-07-29T04:55:26;16.40;99.90
34550;DHT22;66080;52.078;5.626;2023-07-29T04:57:52;16.40;99.90
34550;DHT22;66080;52.078;5.626;2023-07-29T05:00:17;16.40;99.90
34550;DHT22;66080;52.078;5.626;2023-07-29T05:02:43;16.30;99.90
34550;DHT22;66080;52.078;5.626;2023-07-29T05:05:08;16.40;99.90
34550;DHT22;66080;52.078;5.626;2023-07-29T05:07:34;16.40;99.90
34550;DHT22;66080;52.078;5.626;2023-07-29T05:09:59;16.30;99.90
34550;DHT22;66080;52.078;5.626;2023-07-29T05:12:25;16.40;99.90
34550;DHT22;66080;52.078;5.626;2023-07-29T05:14:51;16.40;99.90
34550;DHT22;66080;52.078;5.626;2023-07-29T05:17:16;16.40;99.90
34550;DHT22;66080;52.078;5.626;2023-07-29T05:19:42;16.40;99.90
34550;DHT22;66080;52.078;5.626;2023-07-29T05:22:07;16.50;99.90
34550;DHT22;66080;52.078;5.626;2023-07-29T05:24:33;16.50;99.90
34550;DHT22;66080;52.078;5.626;2023-07-29T05:26:58;16.50;99.90
34550;DHT22;66080;52.078;5.626;2023-07-29T05:29:24;16.50;99.90
34550;DHT22;66080;52.078;5.626;2023-07-29T05:31:50;16.50;99.90
34550;DHT22;66080;52.078;5.626;2023-07-29T05:34:15;16.60;99.90
34550;DHT22;66080;52.078;5.626;2023-07-29T05:36:41;16.60;99.90
34550;DHT22;66080;52.078;5.626;2023-07-29T05:39:06;16.60;99.90
34550;DHT22;66080;52.078;5.626;2023-07-29T05:41:32;16.60;99.90
34550;DHT22;66080;52.078;5.626;2023-07-29T05:43:58;16.60;99.90
34550;DHT22;66080;52.078;5.626;2023-07-29T05:46:24;16.70;99.90
34550;DHT22;66080;52.078;5.626;2023-07-29T05:48:49;16.70;99.90
34550;DHT22;66080;52.078;5.626;2023-07-29T05:51:15;16.70;99.90
34550;DHT22;66080;52.078;5.626;2023-07-29T05:53:40;16.70;99.90
34550;DHT22;66080;52.078;5.626;2023-07-29T05:56:06;16.80;99.90
34550;DHT22;66080;52.078;5.626;2023-07-29T05:58:31;16.80;99.90
34550;DHT22;66080;52.078;5.626;2023-07-29T06:00:58;16.80;99.90
34550;DHT22;66080;52.078;5.626;2023-07-29T06:03:24;16.90;99.90
34550;DHT22;66080;52.078;5.626;2023-07-29T06:05:49;16.90;99.90
34550;DHT22;66080;52.078;5.626;2023-07-29T06:08:15;16.90;99.90
34550;DHT22;66080;52.078;5.626;2023-07-29T06:10:41;16.90;99.90
34550;DHT22;66080;52.078;5.626;2023-07-29T06:13:06;17.00;99.90
34550;DHT22;66080;52.078;5.626;2023-07-29T06:15:32;17.00;99.90
34550;DHT22;66080;52.078;5.626;2023-07-29T06:17:57;17.10;99.90
34550;DHT22;66080;52.078;5.626;2023-07-29T06:20:23;17.20;99.90
34550;DHT22;66080;52.078;5.626;2023-07-29T06:22:48;17.20;99.90
34550;DHT22;66080;52.078;5.626;2023-07-29T06:25:14;17.30;99.90
34550;DHT22;66080;52.078;5.626;2023-07-29T06:27:39;17.30;99.90
34550;DHT22;66080;52.078;5.626;2023-07-29T06:30:05;17.30;99.90
34550;DHT22;66080;52.078;5.626;2023-07-29T06:32:31;17.40;99.90
34550;DHT22;66080;52.078;5.626;2023-07-29T06:34:57;17.50;99.90
34550;DHT22;66080;52.078;5.626;2023-07-29T06:37:22;17.60;99.90
34550;DHT22;66080;52.078;5.626;2023-07-29T06:39:48;17.60;99.90
34550;DHT22;66080;52.078;5.626;2023-07-29T06:42:14;17.70;99.90
34550;DHT22;66080;52.078;5.626;2023-07-29T06:44:40;17.80;99.90
34550;DHT22;66080;52.078;5.626;2023-07-29T06:47:05;17.80;99.90
34550;DHT22;66080;52.078;5.626;2023-07-29T06:49:31;17.90;99.90
34550;DHT22;66080;52.078;5.626;2023-07-29T06:51:56;17.90;99.90
34550;DHT22;66080;52.078;5.626;2023-07-29T06:54:25;18.10;99.90
34550;DHT22;66080;52.078;5.626;2023-07-29T06:56:54;18.00;99.90
34550;DHT22;66080;52.078;5.626;2023-07-29T06:59:19;18.00;99.90
34550;DHT22;66080;52.078;5.626;2023-07-29T07:01:45;18.00;99.90
34550;DHT22;66080;52.078;5.626;2023-07-29T07:04:11;18.10;99.90
34550;DHT22;66080;52.078;5.626;2023-07-29T07:06:36;18.10;99.90
34550;DHT22;66080;52.078;5.626;2023-07-29T07:09:02;18.20;99.90
34550;DHT22;66080;52.078;5.626;2023-07-29T07:11:28;18.20;99.90
34550;DHT22;66080;52.078;5.626;2023-07-29T07:13:53;18.30;99.90
34550;DHT22;66080;52.078;5.626;2023-07-29T07:16:19;18.40;99.90
34550;DHT22;66080;52.078;5.626;2023-07-29T07:18:44;18.50;99.90
34550;DHT22;66080;52.078;5.626;2023-07-29T07:21:10;18.60;99.90
34550;DHT22;66080;52.078;5.626;2023-07-29T07:23:35;18.60;99.90
34550;DHT22;66080;52.078;5.626;2023-07-29T07:26:01;18.60;99.90
34550;DHT22;66080;52.078;5.626;2023-07-29T07:28:27;18.50;99.90
34550;DHT22;66080;52.078;5.626;2023-07-29T07:30:52;18.40;99.90
34550;DHT22;66080;52.078;5.626;2023-07-29T07:33:18;18.40;99.90
34550;DHT22;66080;52.078;5.626;2023-07-29T07:35:44;18.40;99.90
34550;DHT22;66080;52.078;5.626;2023-07-29T07:38:09;18.40;99.90
34550;DHT22;66080;52.078;5.626;2023-07-29T07:40:35;18.40;99.90
34550;DHT22;66080;52.078;5.626;2023-07-29T07:43:02;18.40;99.90
34550;DHT22;66080;52.078;5.626;2023-07-29T07:45:27;18.40;99.90
34550;DHT22;66080;52.078;5.626;2023-07-29T07:47:53;18.60;99.90
34550;DHT22;66080;52.078;5.626;2023-07-29T07:50:20;18.70;99.90
34550;DHT22;66080;52.078;5.626;2023-07-29T07:52:46;18.70;99.90
34550;DHT22;66080;52.078;5.626;2023-07-29T07:55:11;18.70;99.90
34550;DHT22;66080;52.078;5.626;2023-07-29T07:57:37;18.60;99.90
34550;DHT22;66080;52.078;5.626;2023-07-29T08:00:02;18.60;99.90
34550;DHT22;66080;52.078;5.626;2023-07-29T08:02:29;18.70;99.90
34550;DHT22;66080;52.078;5.626;2023-07-29T08:04:55;18.80;99.90
34550;DHT22;66080;52.078;5.626;2023-07-29T08:07:21;18.90;99.90
34550;DHT22;66080;52.078;5.626;2023-07-29T08:09:46;18.90;99.90
34550;DHT22;66080;52.078;5.626;2023-07-29T08:12:12;19.00;99.90
34550;DHT22;66080;52.078;5.626;2023-07-29T08:14:37;19.20;99.90
34550;DHT22;66080;52.078;5.626;2023-07-29T08:17:03;19.20;99.90
34550;DHT22;66080;52.078;5.626;2023-07-29T08:19:29;19.20;99.90
34550;DHT22;66080;52.078;5.626;2023-07-29T08:21:54;19.30;99.90
34550;DHT22;66080;52.078;5.626;2023-07-29T08:24:20;19.20;99.90
34550;DHT22;66080;52.078;5.626;2023-07-29T08:26:45;19.20;99.90
34550;DHT22;66080;52.078;5.626;2023-07-29T08:29:11;19.20;99.90
34550;DHT22;66080;52.078;5.626;2023-07-29T08:31:37;19.30;99.90
34550;DHT22;66080;52.078;5.626;2023-07-29T08:34:03;19.20;99.90
34550;DHT22;66080;52.078;5.626;2023-07-29T08:36:29;19.20;99.90
34550;DHT22;66080;52.078;5.626;2023-07-29T08:38:54;19.30;99.90
34550;DHT22;66080;52.078;5.626;2023-07-29T08:41:26;19.60;99.90
34550;DHT22;66080;52.078;5.626;2023-07-29T08:44:06;19.80;99.90
34550;DHT22;66080;52.078;5.626;2023-07-29T08:46:34;19.80;99.90
34550;DHT22;66080;52.078;5.626;2023-07-29T08:49:00;19.70;99.90
34550;DHT22;66080;52.078;5.626;2023-07-29T08:51:27;19.80;99.90
34550;DHT22;66080;52.078;5.626;2023-07-29T08:53:54;19.90;99.90
34550;DHT22;66080;52.078;5.626;2023-07-29T08:56:20;19.80;99.90
34550;DHT22;66080;52.078;5.626;2023-07-29T08:58:46;19.80;99.90
34550;DHT22;66080;52.078;5.626;2023-07-29T09:01:12;19.80;99.90
34550;DHT22;66080;52.078;5.626;2023-07-29T09:03:37;19.80;99.90
34550;DHT22;66080;52.078;5.626;2023-07-29T09:06:03;19.80;99.90
34550;DHT22;66080;52.078;5.626;2023-07-29T09:08:29;19.70;99.90
34550;DHT22;66080;52.078;5.626;2023-07-29T09:10:55;19.80;99.90
34550;DHT22;66080;52.078;5.626;2023-07-29T09:13:21;19.90;99.90
34550;DHT22;66080;52.078;5.626;2023-07-29T09:15:47;19.80;99.90
34550;DHT22;66080;52.078;5.626;2023-07-29T09:18:17;20.00;99.90
34550;DHT22;66080;52.078;5.626;2023-07-29T09:20:45;20.20;99.90
34550;DHT22;66080;52.078;5.626;2023-07-29T09:23:11;20.20;99.90
34550;DHT22;66080;52.078;5.626;2023-07-29T09:25:37;20.30;99.90
34550;DHT22;66080;52.078;5.626;2023-07-29T09:28:09;20.30;99.90
34550;DHT22;66080;52.078;5.626;2023-07-29T09:30:35;20.10;99.90
34550;DHT22;66080;52.078;5.626;2023-07-29T09:33:00;20.20;99.90
34550;DHT22;66080;52.078;5.626;2023-07-29T09:35:29;20.10;99.90
34550;DHT22;66080;52.078;5.626;2023-07-29T09:37:55;20.20;99.90
34550;DHT22;66080;52.078;5.626;2023-07-29T09:40:20;20.40;99.90
34550;DHT22;66080;52.078;5.626;2023-07-29T09:42:54;20.40;99.90
34550;DHT22;66080;52.078;5.626;2023-07-29T09:45:24;20.50;99.90
34550;DHT22;66080;52.078;5.626;2023-07-29T09:47:51;20.50;99.90
34550;DHT22;66080;52.078;5.626;2023-07-29T09:50:17;20.60;99.90
34550;DHT22;66080;52.078;5.626;2023-07-29T09:52:43;20.80;99.90
34550;DHT22;66080;52.078;5.626;2023-07-29T09:55:13;20.60;99.90
34550;DHT22;66080;52.078;5.626;2023-07-29T09:57:43;20.60;99.90
34550;DHT22;66080;52.078;5.626;2023-07-29T10:00:11;20.60;99.90
34550;DHT22;66080;52.078;5.626;2023-07-29T10:02:41;20.50;99.70
34550;DHT22;66080;52.078;5.626;2023-07-29T10:05:07;20.60;99.10
34550;DHT22;66080;52.078;5.626;2023-07-29T10:07:38;20.80;99.60
34550;DHT22;66080;52.078;5.626;2023-07-29T10:10:05;21.00;98.80
34550;DHT22;66080;52.078;5.626;2023-07-29T10:12:31;21.10;98.50
34550;DHT22;66080;52.078;5.626;2023-07-29T10:15:03;21.20;98.20
34550;DHT22;66080;52.078;5.626;2023-07-29T10:17:30;21.20;98.90
34550;DHT22;66080;52.078;5.626;2023-07-29T10:19:57;21.30;98.00
34550;DHT22;66080;52.078;5.626;2023-07-29T10:22:27;21.40;98.60
34550;DHT22;66080;52.078;5.626;2023-07-29T10:24:56;21.60;96.70
34550;DHT22;66080;52.078;5.626;2023-07-29T10:27:25;21.50;97.10
34550;DHT22;66080;52.078;5.626;2023-07-29T10:29:54;21.60;96.90
34550;DHT22;66080;52.078;5.626;2023-07-29T10:32:24;21.50;96.50
34550;DHT22;66080;52.078;5.626;2023-07-29T10:34:50;21.60;97.00
34550;DHT22;66080;52.078;5.626;2023-07-29T10:37:16;21.60;96.80
34550;DHT22;66080;52.078;5.626;2023-07-29T10:39:52;21.50;96.20
34550;DHT22;66080;52.078;5.626;2023-07-29T10:42:18;21.50;96.70
34550;DHT22;66080;52.078;5.626;2023-07-29T10:44:47;21.30;95.70
34550;DHT22;66080;52.078;5.626;2023-07-29T10:47:26;21.30;96.30
34550;DHT22;66080;52.078;5.626;2023-07-29T10:49:59;21.70;97.20
34550;DHT22;66080;52.078;5.626;2023-07-29T10:55:00;21.70;95.10
34550;DHT22;66080;52.078;5.626;2023-07-29T10:57:34;21.70;96.30
34550;DHT22;66080;52.078;5.626;2023-07-29T11:00:00;21.60;95.00
34550;DHT22;66080;52.078;5.626;2023-07-29T11:02:36;21.50;95.50
34550;DHT22;66080;52.078;5.626;2023-07-29T11:05:16;21.20;96.10
34550;DHT22;66080;52.078;5.626;2023-07-29T11:07:48;21.20;96.60
34550;DHT22;66080;52.078;5.626;2023-07-29T11:10:15;21.10;97.40
34550;DHT22;66080;52.078;5.626;2023-07-29T11:17:43;21.00;97.00
34550;DHT22;66080;52.078;5.626;2023-07-29T11:20:10;20.90;97.10
34550;DHT22;66080;52.078;5.626;2023-07-29T11:22:37;20.90;98.60
34550;DHT22;66080;52.078;5.626;2023-07-29T11:25:04;20.80;98.90
34550;DHT22;66080;52.078;5.626;2023-07-29T11:27:30;20.60;99.60
34550;DHT22;66080;52.078;5.626;2023-07-29T11:30:00;20.40;99.90
34550;DHT22;66080;52.078;5.626;2023-07-29T11:32:26;20.60;99.90
34550;DHT22;66080;52.078;5.626;2023-07-29T11:34:52;20.60;99.90
34550;DHT22;66080;52.078;5.626;2023-07-29T11:37:17;20.60;99.90
34550;DHT22;66080;52.078;5.626;2023-07-29T11:39:46;20.40;99.90
34550;DHT22;66080;52.078;5.626;2023-07-29T11:42:13;20.20;99.90
34550;DHT22;66080;52.078;5.626;2023-07-29T11:44:38;19.90;99.90
34550;DHT22;66080;52.078;5.626;2023-07-29T11:47:08;19.90;99.90
34550;DHT22;66080;52.078;5.626;2023-07-29T11:49:34;19.70;99.90
34550;DHT22;66080;52.078;5.626;2023-07-29T11:52:00;19.60;99.90
34550;DHT22;66080;52.078;5.626;2023-07-29T11:54:26;19.60;99.90
34550;DHT22;66080;52.078;5.626;2023-07-29T11:56:51;19.40;99.90
34550;DHT22;66080;52.078;5.626;2023-07-29T11:59:17;19.50;99.90
34550;DHT22;66080;52.078;5.626;2023-07-29T12:01:43;19.30;99.90
34550;DHT22;66080;52.078;5.626;2023-07-29T12:04:09;19.30;99.90
34550;DHT22;66080;52.078;5.626;2023-07-29T12:06:35;19.30;99.90
34550;DHT22;66080;52.078;5.626;2023-07-29T12:09:01;19.20;99.90
34550;DHT22;66080;52.078;5.626;2023-07-29T12:11:26;19.10;99.90
34550;DHT22;66080;52.078;5.626;2023-07-29T12:13:54;19.10;99.90
34550;DHT22;66080;52.078;5.626;2023-07-29T12:16:19;19.10;99.90
34550;DHT22;66080;52.078;5.626;2023-07-29T12:18:45;19.20;99.90
34550;DHT22;66080;52.078;5.626;2023-07-29T12:21:10;19.30;99.90
34550;DHT22;66080;52.078;5.626;2023-07-29T12:23:36;19.30;99.90
34550;DHT22;66080;52.078;5.626;2023-07-29T12:26:02;19.40;99.90
34550;DHT22;66080;52.078;5.626;2023-07-29T12:28:28;19.40;99.90
34550;DHT22;66080;52.078;5.626;2023-07-29T12:30:54;19.70;99.90
34550;DHT22;66080;52.078;5.626;2023-07-29T12:33:33;19.70;99.90
34550;DHT22;66080;52.078;5.626;2023-07-29T12:35:59;20.10;99.90
34550;DHT22;66080;52.078;5.626;2023-07-29T12:38:28;20.10;99.90
34550;DHT22;66080;52.078;5.626;2023-07-29T12:40:55;20.20;99.90
34550;DHT22;66080;52.078;5.626;2023-07-29T12:43:21;20.50;99.90
34550;DHT22;66080;52.078;5.626;2023-07-29T12:45:49;20.60;99.90
34550;DHT22;66080;52.078;5.626;2023-07-29T12:48:15;20.50;99.90
34550;DHT22;66080;52.078;5.626;2023-07-29T12:50:40;20.90;99.90
34550;DHT22;66080;52.078;5.626;2023-07-29T12:53:08;20.90;99.90
34550;DHT22;66080;52.078;5.626;2023-07-29T12:55:35;20.70;99.90
34550;DHT22;66080;52.078;5.626;2023-07-29T12:58:01;21.10;99.90
34550;DHT22;66080;52.078;5.626;2023-07-29T13:00:27;21.20;99.90
34550;DHT22;66080;52.078;5.626;2023-07-29T13:02:53;21.30;99.90
34550;DHT22;66080;52.078;5.626;2023-07-29T13:05:19;21.00;99.90
34550;DHT22;66080;52.078;5.626;2023-07-29T13:07:45;20.90;99.90
34550;DHT22;66080;52.078;5.626;2023-07-29T13:10:11;20.80;99.90
34550;DHT22;66080;52.078;5.626;2023-07-29T13:12:37;20.70;99.90
34550;DHT22;66080;52.078;5.626;2023-07-29T13:15:03;20.70;99.90
34550;DHT22;66080;52.078;5.626;2023-07-29T13:17:29;20.70;99.90
34550;DHT22;66080;52.078;5.626;2023-07-29T13:19:54;20.70;99.90
34550;DHT22;66080;52.078;5.626;2023-07-29T13:22:20;20.70;99.90
34550;DHT22;66080;52.078;5.626;2023-07-29T13:24:46;20.60;99.90
34550;DHT22;66080;52.078;5.626;2023-07-29T13:27:12;20.40;99.90
34550;DHT22;66080;52.078;5.626;2023-07-29T13:29:38;20.30;99.90
34550;DHT22;66080;52.078;5.626;2023-07-29T13:32:05;20.10;99.90
34550;DHT22;66080;52.078;5.626;2023-07-29T13:34:30;20.10;99.90
34550;DHT22;66080;52.078;5.626;2023-07-29T13:36:56;20.10;99.90
34550;DHT22;66080;52.078;5.626;2023-07-29T13:39:21;20.20;99.90
34550;DHT22;66080;52.078;5.626;2023-07-29T13:41:47;20.20;99.90
34550;DHT22;66080;52.078;5.626;2023-07-29T13:44:12;20.40;99.90
34550;DHT22;66080;52.078;5.626;2023-07-29T13:46:38;21.00;99.90
34550;DHT22;66080;52.078;5.626;2023-07-29T13:49:03;21.50;99.90
34550;DHT22;66080;52.078;5.626;2023-07-29T13:51:29;21.90;99.90
34550;DHT22;66080;52.078;5.626;2023-07-29T13:53:54;22.30;99.90
34550;DHT22;66080;52.078;5.626;2023-07-29T13:56:21;22.20;99.90
34550;DHT22;66080;52.078;5.626;2023-07-29T13:58:47;22.20;99.90
34550;DHT22;66080;52.078;5.626;2023-07-29T14:01:13;22.10;99.90
34550;DHT22;66080;52.078;5.626;2023-07-29T14:03:38;23.30;99.20
34550;DHT22;66080;52.078;5.626;2023-07-29T14:06:04;23.20;98.40
34550;DHT22;66080;52.078;5.626;2023-07-29T14:08:30;23.60;97.80
34550;DHT22;66080;52.078;5.626;2023-07-29T14:10:55;23.60;97.40
34550;DHT22;66080;52.078;5.626;2023-07-29T14:13:21;23.10;97.00
34550;DHT22;66080;52.078;5.626;2023-07-29T14:15:46;23.30;97.20
34550;DHT22;66080;52.078;5.626;2023-07-29T14:18:12;23.40;96.50
34550;DHT22;66080;52.078;5.626;2023-07-29T14:20:38;24.20;94.20
34550;DHT22;66080;52.078;5.626;2023-07-29T14:23:04;24.60;95.00
34550;DHT22;66080;52.078;5.626;2023-07-29T14:25:30;24.70;92.20
34550;DHT22;66080;52.078;5.626;2023-07-29T14:27:55;24.30;94.50
34550;DHT22;66080;52.078;5.626;2023-07-29T14:30:21;23.60;93.80
34550;DHT22;66080;52.078;5.626;2023-07-29T14:32:46;24.10;94.50
34550;DHT22;66080;52.078;5.626;2023-07-29T14:35:12;24.40;93.10
34550;DHT22;66080;52.078;5.626;2023-07-29T14:37:38;24.90;92.90
34550;DHT22;66080;52.078;5.626;2023-07-29T14:40:04;24.40;91.40
34550;DHT22;66080;52.078;5.626;2023-07-29T14:42:30;24.20;92.80
34550;DHT22;66080;52.078;5.626;2023-07-29T14:44:56;23.80;92.60
34550;DHT22;66080;52.078;5.626;2023-07-29T14:47:21;24.00;92.60
34550;DHT22;66080;52.078;5.626;2023-07-29T14:49:47;25.30;91.90
34550;DHT22;66080;52.078;5.626;2023-07-29T14:52:12;24.40;89.80
34550;DHT22;66080;52.078;5.626;2023-07-29T14:54:38;24.00;93.50
34550;DHT22;66080;52.078;5.626;2023-07-29T14:57:06;24.80;91.20
34550;DHT22;66080;52.078;5.626;2023-07-29T14:59:32;24.50;91.00
34550;DHT22;66080;52.078;5.626;2023-07-29T15:01:57;25.30;91.80
34550;DHT22;66080;52.078;5.626;2023-07-29T15:04:23;25.60;88.80
34550;DHT22;66080;52.078;5.626;2023-07-29T15:06:48;25.30;86.20
34550;DHT22;66080;52.078;5.626;2023-07-29T15:09:14;25.00;86.70
34550;DHT22;66080;52.078;5.626;2023-07-29T15:11:39;24.30;86.90
34550;DHT22;66080;52.078;5.626;2023-07-29T15:14:06;23.90;86.40
34550;DHT22;66080;52.078;5.626;2023-07-29T15:16:32;23.60;87.30
34550;DHT22;66080;52.078;5.626;2023-07-29T15:18:59;23.70;90.20
34550;DHT22;66080;52.078;5.626;2023-07-29T15:21:25;23.70;87.00
34550;DHT22;66080;52.078;5.626;2023-07-29T15:23:50;23.70;88.00
34550;DHT22;66080;52.078;5.626;2023-07-29T15:26:16;24.00;87.10
34550;DHT22;66080;52.078;5.626;2023-07-29T15:28:41;24.80;85.90
34550;DHT22;66080;52.078;5.626;2023-07-29T15:31:07;24.80;86.80
34550;DHT22;66080;52.078;5.626;2023-07-29T15:33:33;24.90;81.90